sensor_id;sensor_type;location;lat;lon;timestamp;P1;durP1;ratioP1;P2;durP2;ratioP2
62994;SDS011;49086;52.300;4.850;2022-08-01T00:00:25;7.07;;;3.75;;
62994;SDS011;49086;52.300;4.850;2022-08-01T00:02:54;9.50;;;4.30;;
62994;SDS011;49086;52.300;4.850;2022-08-01T00:05:21;5.80;;;3.75;;
62994;SDS011;49086;52.300;4.850;2022-08-01T00:07:46;5.13;;;3.20;;
62994;SDS011;49086;52.300;4.850;2022-08-01T00:10:13;8.80;;;3.67;;
62994;SDS011;49086;52.300;4.850;2022-08-01T00:12:43;7.45;;;3.53;;
62994;SDS011;49086;52.300;4.850;2022-08-01T00:15:12;7.35;;;3.47;;
62994;SDS011;49086;52.300;4.850;2022-08-01T00:17:44;7.05;;;3.50;;
62994;SDS011;49086;52.300;4.850;2022-08-01T00:20:12;5.50;;;3.30;;
62994;SDS011;49086;52.300;4.850;2022-08-01T00:22:40;7.57;;;3.30;;
62994;SDS011;49086;52.300;4.850;2022-08-01T00:25:07;6.55;;;3.42;;
62994;SDS011;49086;52.300;4.850;2022-08-01T00:27:34;4.82;;;3.00;;
62994;SDS011;49086;52.300;4.850;2022-08-01T00:30:08;9.52;;;3.20;;
62994;SDS011;49086;52.300;4.850;2022-08-01T00:32:34;4.38;;;2.75;;
62994;SDS011;49086;52.300;4.850;2022-08-01T00:35:08;5.13;;;2.70;;
62994;SDS011;49086;52.300;4.850;2022-08-01T00:37:34;6.63;;;3.10;;
62994;SDS011;49086;52.300;4.850;2022-08-01T00:39:59;9.43;;;3.33;;
62994;SDS011;49086;52.300;4.850;2022-08-01T00:42:25;6.65;;;3.10;;
62994;SDS011;49086;52.300;4.850;2022-08-01T00:44:52;7.47;;;2.88;;
62994;SDS011;49086;52.300;4.850;2022-08-01T00:47:18;5.43;;;2.97;;
62994;SDS011;49086;52.300;4.850;2022-08-01T00:49:43;7.90;;;3.08;;
62994;SDS011;49086;52.300;4.850;2022-08-01T00:52:09;5.40;;;3.10;;
62994;SDS011;49086;52.300;4.850;2022-08-01T00:54:35;7.30;;;2.85;;
62994;SDS011;49086;52.300;4.850;2022-08-01T00:57:01;6.20;;;3.28;;
62994;SDS011;49086;52.300;4.850;2022-08-01T00:59:29;6.25;;;3.20;;
62994;SDS011;49086;52.300;4.850;2022-08-01T01:01:55;5.07;;;3.00;;
62994;SDS011;49086;52.300;4.850;2022-08-01T01:04:25;4.30;;;2.38;;
62994;SDS011;49086;52.300;4.850;2022-08-01T01:15:02;4.70;;;2.67;;
62994;SDS011;49086;52.300;4.850;2022-08-01T01:17:47;6.88;;;3.42;;
62994;SDS011;49086;52.300;4.850;2022-08-01T01:20:27;5.78;;;2.97;;
62994;SDS011;49086;52.300;4.850;2022-08-01T01:22:58;8.15;;;3.35;;
62994;SDS011;49086;52.300;4.850;2022-08-01T01:28:15;8.02;;;3.30;;
62994;SDS011;49086;52.300;4.850;2022-08-01T01:30:52;6.43;;;3.28;;
62994;SDS011;49086;52.300;4.850;2022-08-01T01:33:20;8.18;;;3.22;;
62994;SDS011;49086;52.300;4.850;2022-08-01T01:35:51;5.45;;;3.03;;
62994;SDS011;49086;52.300;4.850;2022-08-01T01:38:29;7.88;;;3.30;;
62994;SDS011;49086;52.300;4.850;2022-08-01T01:40:59;4.45;;;2.97;;
62994;SDS011;49086;52.300;4.850;2022-08-01T01:43:27;5.63;;;3.58;;
62994;SDS011;49086;52.300;4.850;2022-08-01T01:45:57;4.97;;;3.10;;
62994;SDS011;49086;52.300;4.850;2022-08-01T01:48:22;6.65;;;3.67;;
62994;SDS011;49086;52.300;4.850;2022-08-01T01:50:50;8.75;;;3.10;;
62994;SDS011;49086;52.300;4.850;2022-08-01T01:53:17;7.07;;;3.80;;
62994;SDS011;49086;52.300;4.850;2022-08-01T01:55:48;6.57;;;3.70;;
62994;SDS011;49086;52.300;4.850;2022-08-01T01:58:18;8.65;;;3.70;;
62994;SDS011;49086;52.300;4.850;2022-08-01T02:00:47;9.85;;;4.22;;
62994;SDS011;49086;52.300;4.850;2022-08-01T02:03:14;7.32;;;4.22;;
62994;SDS011;49086;52.300;4.850;2022-08-01T02:05:42;10.73;;;4.63;;
62994;SDS011;49086;52.300;4.850;2022-08-01T02:08:09;7.50;;;4.40;;
62994;SDS011;49086;52.300;4.850;2022-08-01T02:10:38;9.20;;;4.97;;
62994;SDS011;49086;52.300;4.850;2022-08-01T02:13:05;10.18;;;4.68;;
62994;SDS011;49086;52.300;4.850;2022-08-01T02:15:31;7.80;;;4.60;;
62994;SDS011;49086;52.300;4.850;2022-08-01T02:18:02;10.85;;;5.10;;
62994;SDS011;49086;52.300;4.850;2022-08-01T02:20:32;9.13;;;4.25;;
62994;SDS011;49086;52.300;4.850;2022-08-01T02:23:06;8.15;;;4.88;;
62994;SDS011;49086;52.300;4.850;2022-08-01T02:26:39;11.77;;;5.45;;
62994;SDS011;49086;52.300;4.850;2022-08-01T02:29:19;15.52;;;5.43;;
62994;SDS011;49086;52.300;4.850;2022-08-01T02:31:54;10.85;;;5.47;;
62994;SDS011;49086;52.300;4.850;2022-08-01T02:34:22;12.30;;;5.70;;
62994;SDS011;49086;52.300;4.850;2022-08-01T02:37:05;7.95;;;5.20;;
62994;SDS011;49086;52.300;4.850;2022-08-01T02:39:32;9.80;;;5.40;;
62994;SDS011;49086;52.300;4.850;2022-08-01T02:42:04;10.95;;;5.53;;
62994;SDS011;49086;52.300;4.850;2022-08-01T02:44:36;9.15;;;5.30;;
62994;SDS011;49086;52.300;4.850;2022-08-01T02:47:11;10.10;;;5.25;;
62994;SDS011;49086;52.300;4.850;2022-08-01T02:49:44;9.35;;;5.03;;
62994;SDS011;49086;52.300;4.850;2022-08-01T02:52:33;12.85;;;4.93;;
62994;SDS011;49086;52.300;4.850;2022-08-01T02:55:08;8.88;;;5.03;;
62994;SDS011;49086;52.300;4.850;2022-08-01T02:57:42;12.70;;;6.40;;
62994;SDS011;49086;52.300;4.850;2022-08-01T03:00:14;7.65;;;5.30;;
62994;SDS011;49086;52.300;4.850;2022-08-01T03:02:42;8.45;;;5.60;;
62994;SDS011;49086;52.300;4.850;2022-08-01T03:05:09;9.45;;;5.28;;
62994;SDS011;49086;52.300;4.850;2022-08-01T03:07:39;10.90;;;5.10;;
62994;SDS011;49086;52.300;4.850;2022-08-01T03:10:09;10.63;;;5.43;;
62994;SDS011;49086;52.300;4.850;2022-08-01T03:12:53;11.68;;;5.50;;
62994;SDS011;49086;52.300;4.850;2022-08-01T03:15:29;13.35;;;6.28;;
62994;SDS011;49086;52.300;4.850;2022-08-01T03:18:13;10.32;;;5.47;;
62994;SDS011;49086;52.300;4.850;2022-08-01T03:21:39;13.02;;;6.13;;
62994;SDS011;49086;52.300;4.850;2022-08-01T03:25:06;13.27;;;5.72;;
62994;SDS011;49086;52.300;4.850;2022-08-01T03:28:32;10.30;;;5.90;;
62994;SDS011;49086;52.300;4.850;2022-08-01T03:32:09;8.65;;;5.68;;
62994;SDS011;49086;52.300;4.850;2022-08-01T03:35:35;12.60;;;6.07;;
62994;SDS011;49086;52.300;4.850;2022-08-01T03:38:30;11.65;;;6.00;;
62994;SDS011;49086;52.300;4.850;2022-08-01T03:42:14;9.55;;;5.60;;
62994;SDS011;49086;52.300;4.850;2022-08-01T03:44:58;9.85;;;5.55;;
62994;SDS011;49086;52.300;4.850;2022-08-01T03:48:01;8.93;;;5.03;;
62994;SDS011;49086;52.300;4.850;2022-08-01T03:51:28;6.35;;;4.45;;
62994;SDS011;49086;52.300;4.850;2022-08-01T03:54:54;7.13;;;3.97;;
62994;SDS011;49086;52.300;4.850;2022-08-01T03:58:20;5.30;;;3.30;;
62994;SDS011;49086;52.300;4.850;2022-08-01T04:01:00;7.40;;;3.30;;
62994;SDS011;49086;52.300;4.850;2022-08-01T04:04:26;4.60;;;3.33;;
62994;SDS011;49086;52.300;4.850;2022-08-01T04:07:51;4.78;;;3.40;;
62994;SDS011;49086;52.300;4.850;2022-08-01T04:11:24;5.78;;;2.95;;
62994;SDS011;49086;52.300;4.850;2022-08-01T04:14:50;4.97;;;2.85;;
62994;SDS011;49086;52.300;4.850;2022-08-01T04:17:15;4.80;;;2.67;;
62994;SDS011;49086;52.300;4.850;2022-08-01T04:19:41;5.60;;;3.15;;
62994;SDS011;49086;52.300;4.850;2022-08-01T04:22:31;6.13;;;3.00;;
62994;SDS011;49086;52.300;4.850;2022-08-01T04:25:56;4.28;;;2.40;;
62994;SDS011;49086;52.300;4.850;2022-08-01T04:28:53;4.10;;;2.55;;
62994;SDS011;49086;52.300;4.850;2022-08-01T04:32:20;4.22;;;2.40;;
62994;SDS011;49086;52.300;4.850;2022-08-01T04:34:55;4.93;;;2.67;;
62994;SDS011;49086;52.300;4.850;2022-08-01T04:38:22;5.72;;;2.92;;
62994;SDS011;49086;52.300;4.850;2022-08-01T04:41:52;8.15;;;2.53;;
62994;SDS011;49086;52.300;4.850;2022-08-01T04:45:18;5.60;;;2.72;;
62994;SDS011;49086;52.300;4.850;2022-08-01T04:48:42;4.38;;;2.70;;
62994;SDS011;49086;52.300;4.850;2022-08-01T04:52:08;6.43;;;3.10;;
62994;SDS011;49086;52.300;4.850;2022-08-01T04:55:46;8.73;;;3.30;;
62994;SDS011;49086;52.300;4.850;2022-08-01T05:02:44;8.82;;;3.50;;
62994;SDS011;49086;52.300;4.850;2022-08-01T05:05:18;10.68;;;3.47;;
62994;SDS011;49086;52.300;4.850;2022-08-01T05:08:46;6.95;;;3.10;;
62994;SDS011;49086;52.300;4.850;2022-08-01T05:12:16;9.40;;;3.20;;
62994;SDS011;49086;52.300;4.850;2022-08-01T05:14:48;11.63;;;3.58;;
62994;SDS011;49086;52.300;4.850;2022-08-01T05:17:37;11.85;;;3.58;;
62994;SDS011;49086;52.300;4.850;2022-08-01T05:21:01;10.88;;;4.05;;
62994;SDS011;49086;52.300;4.850;2022-08-01T05:24:33;10.07;;;4.22;;
62994;SDS011;49086;52.300;4.850;2022-08-01T05:28:00;9.57;;;4.50;;
62994;SDS011;49086;52.300;4.850;2022-08-01T05:31:25;12.32;;;4.00;;
62994;SDS011;49086;52.300;4.850;2022-08-01T05:34:56;11.55;;;4.03;;
62994;SDS011;49086;52.300;4.850;2022-08-01T05:38:20;12.53;;;3.80;;
62994;SDS011;49086;52.300;4.850;2022-08-01T05:41:44;9.07;;;3.75;;
62994;SDS011;49086;52.300;4.850;2022-08-01T05:48:33;18.05;;;3.45;;
62994;SDS011;49086;52.300;4.850;2022-08-01T05:51:58;11.65;;;3.75;;
62994;SDS011;49086;52.300;4.850;2022-08-01T05:55:27;13.98;;;3.53;;
62994;SDS011;49086;52.300;4.850;2022-08-01T05:59:24;12.85;;;3.70;;
62994;SDS011;49086;52.300;4.850;2022-08-01T06:02:50;10.43;;;3.77;;
62994;SDS011;49086;52.300;4.850;2022-08-01T06:06:19;12.35;;;3.80;;
62994;SDS011;49086;52.300;4.850;2022-08-01T06:09:45;14.30;;;3.60;;
62994;SDS011;49086;52.300;4.850;2022-08-01T06:13:11;12.07;;;3.45;;
62994;SDS011;49086;52.300;4.850;2022-08-01T06:16:36;15.07;;;3.60;;
62994;SDS011;49086;52.300;4.850;2022-08-01T06:20:01;13.38;;;3.42;;
62994;SDS011;49086;52.300;4.850;2022-08-01T06:23:27;10.77;;;2.40;;
62994;SDS011;49086;52.300;4.850;2022-08-01T06:26:56;15.70;;;2.75;;
62994;SDS011;49086;52.300;4.850;2022-08-01T06:30:21;9.98;;;2.42;;
62994;SDS011;49086;52.300;4.850;2022-08-01T06:33:51;11.85;;;2.55;;
62994;SDS011;49086;52.300;4.850;2022-08-01T06:37:05;11.50;;;2.47;;
62994;SDS011;49086;52.300;4.850;2022-08-01T06:40:29;14.05;;;3.08;;
62994;SDS011;49086;52.300;4.850;2022-08-01T06:43:56;7.03;;;1.83;;
62994;SDS011;49086;52.300;4.850;2022-08-01T06:47:02;14.60;;;3.03;;
62994;SDS011;49086;52.300;4.850;2022-08-01T06:49:56;13.10;;;2.33;;
62994;SDS011;49086;52.300;4.850;2022-08-01T06:52:22;9.45;;;2.10;;
62994;SDS011;49086;52.300;4.850;2022-08-01T06:55:46;7.22;;;2.17;;
62994;SDS011;49086;52.300;4.850;2022-08-01T06:59:10;15.85;;;2.70;;
62994;SDS011;49086;52.300;4.850;2022-08-01T07:02:39;8.65;;;2.08;;
62994;SDS011;49086;52.300;4.850;2022-08-01T07:06:10;9.20;;;1.98;;
62994;SDS011;49086;52.300;4.850;2022-08-01T07:09:36;13.90;;;2.33;;
62994;SDS011;49086;52.300;4.850;2022-08-01T07:13:08;9.82;;;2.42;;
62994;SDS011;49086;52.300;4.850;2022-08-01T07:16:35;8.55;;;1.90;;
62994;SDS011;49086;52.300;4.850;2022-08-01T07:20:05;8.85;;;2.38;;
62994;SDS011;49086;52.300;4.850;2022-08-01T07:22:47;8.93;;;2.00;;
62994;SDS011;49086;52.300;4.850;2022-08-01T07:25:19;9.75;;;1.85;;
62994;SDS011;49086;52.300;4.850;2022-08-01T07:27:46;11.65;;;2.05;;
62994;SDS011;49086;52.300;4.850;2022-08-01T07:30:15;10.75;;;2.10;;
62994;SDS011;49086;52.300;4.850;2022-08-01T07:33:39;10.73;;;2.20;;
62994;SDS011;49086;52.300;4.850;2022-08-01T07:37:11;7.65;;;2.88;;
62994;SDS011;49086;52.300;4.850;2022-08-01T07:40:40;6.47;;;1.55;;
62994;SDS011;49086;52.300;4.850;2022-08-01T07:44:13;7.25;;;1.98;;
62994;SDS011;49086;52.300;4.850;2022-08-01T07:47:39;8.15;;;2.08;;
62994;SDS011;49086;52.300;4.850;2022-08-01T07:51:04;10.18;;;1.60;;
62994;SDS011;49086;52.300;4.850;2022-08-01T07:54:36;11.48;;;2.25;;
62994;SDS011;49086;52.300;4.850;2022-08-01T07:58:05;13.88;;;2.75;;
62994;SDS011;49086;52.300;4.850;2022-08-01T08:01:30;9.13;;;1.90;;
62994;SDS011;49086;52.300;4.850;2022-08-01T08:04:59;8.27;;;1.88;;
62994;SDS011;49086;52.300;4.850;2022-08-01T08:08:31;10.27;;;1.92;;
62994;SDS011;49086;52.300;4.850;2022-08-01T08:11:56;3.95;;;1.73;;
62994;SDS011;49086;52.300;4.850;2022-08-01T08:15:21;10.38;;;1.98;;
62994;SDS011;49086;52.300;4.850;2022-08-01T08:18:57;6.75;;;1.90;;
62994;SDS011;49086;52.300;4.850;2022-08-01T08:21:29;8.57;;;1.90;;
62994;SDS011;49086;52.300;4.850;2022-08-01T08:24:01;6.43;;;1.67;;
62994;SDS011;49086;52.300;4.850;2022-08-01T08:26:50;12.15;;;2.38;;
62994;SDS011;49086;52.300;4.850;2022-08-01T08:29:36;6.50;;;1.98;;
62994;SDS011;49086;52.300;4.850;2022-08-01T08:32:02;11.35;;;1.80;;
62994;SDS011;49086;52.300;4.850;2022-08-01T08:35:41;12.15;;;2.40;;
62994;SDS011;49086;52.300;4.850;2022-08-01T08:38:12;10.85;;;2.00;;
62994;SDS011;49086;52.300;4.850;2022-08-01T08:40:41;9.30;;;2.00;;
62994;SDS011;49086;52.300;4.850;2022-08-01T08:43:08;10.68;;;2.05;;
62994;SDS011;49086;52.300;4.850;2022-08-01T08:45:36;7.05;;;1.80;;
62994;SDS011;49086;52.300;4.850;2022-08-01T08:48:08;8.13;;;1.90;;
62994;SDS011;49086;52.300;4.850;2022-08-01T08:50:34;10.38;;;2.13;;
62994;SDS011;49086;52.300;4.850;2022-08-01T08:53:05;9.63;;;1.67;;
62994;SDS011;49086;52.300;4.850;2022-08-01T08:55:34;9.43;;;2.55;;
62994;SDS011;49086;52.300;4.850;2022-08-01T08:58:00;9.60;;;2.10;;
62994;SDS011;49086;52.300;4.850;2022-08-01T09:00:32;8.00;;;1.80;;
62994;SDS011;49086;52.300;4.850;2022-08-01T09:03:01;9.82;;;1.88;;
62994;SDS011;49086;52.300;4.850;2022-08-01T09:05:28;8.63;;;2.33;;
62994;SDS011;49086;52.300;4.850;2022-08-01T09:07:55;13.27;;;1.70;;
62994;SDS011;49086;52.300;4.850;2022-08-01T09:10:21;9.52;;;4.10;;
62994;SDS011;49086;52.300;4.850;2022-08-01T09:15:50;12.00;;;2.25;;
62994;SDS011;49086;52.300;4.850;2022-08-01T09:18:49;4.70;;;1.40;;
62994;SDS011;49086;52.300;4.850;2022-08-01T09:21:31;5.00;;;1.40;;
62994;SDS011;49086;52.300;4.850;2022-08-01T09:23:57;4.35;;;1.48;;
62994;SDS011;49086;52.300;4.850;2022-08-01T09:26:29;7.07;;;1.92;;
62994;SDS011;49086;52.300;4.850;2022-08-01T09:29:02;10.75;;;2.03;;
62994;SDS011;49086;52.300;4.850;2022-08-01T09:31:38;11.63;;;1.98;;
62994;SDS011;49086;52.300;4.850;2022-08-01T09:34:07;6.57;;;1.27;;
62994;SDS011;49086;52.300;4.850;2022-08-01T09:36:51;11.50;;;2.03;;
62994;SDS011;49086;52.300;4.850;2022-08-01T09:39:37;9.30;;;2.47;;
62994;SDS011;49086;52.300;4.850;2022-08-01T09:42:44;8.85;;;1.63;;
62994;SDS011;49086;52.300;4.850;2022-08-01T09:45:32;7.15;;;1.77;;
62994;SDS011;49086;52.300;4.850;2022-08-01T09:47:58;6.93;;;2.00;;
62994;SDS011;49086;52.300;4.850;2022-08-01T09:50:43;8.10;;;1.80;;
62994;SDS011;49086;52.300;4.850;2022-08-01T09:53:10;9.00;;;1.77;;
62994;SDS011;49086;52.300;4.850;2022-08-01T09:55:43;6.97;;;1.73;;
62994;SDS011;49086;52.300;4.850;2022-08-01T09:58:11;7.30;;;1.80;;
62994;SDS011;49086;52.300;4.850;2022-08-01T10:00:43;6.22;;;1.63;;
62994;SDS011;49086;52.300;4.850;2022-08-01T10:03:24;7.53;;;2.03;;
62994;SDS011;49086;52.300;4.850;2022-08-01T10:05:56;5.13;;;1.40;;
62994;SDS011;49086;52.300;4.850;2022-08-01T10:08:27;9.63;;;2.10;;
62994;SDS011;49086;52.300;4.850;2022-08-01T10:11:13;8.15;;;1.70;;
62994;SDS011;49086;52.300;4.850;2022-08-01T10:13:41;8.45;;;1.80;;
62994;SDS011;49086;52.300;4.850;2022-08-01T10:16:08;7.68;;;1.92;;
62994;SDS011;49086;52.300;4.850;2022-08-01T10:18:35;6.78;;;1.80;;
62994;SDS011;49086;52.300;4.850;2022-08-01T10:21:03;8.68;;;1.75;;
62994;SDS011;49086;52.300;4.850;2022-08-01T10:23:36;6.93;;;1.80;;
62994;SDS011;49086;52.300;4.850;2022-08-01T10:26:05;7.93;;;2.00;;
62994;SDS011;49086;52.300;4.850;2022-08-01T10:28:34;7.65;;;1.90;;
62994;SDS011;49086;52.300;4.850;2022-08-01T10:31:00;10.43;;;1.95;;
62994;SDS011;49086;52.300;4.850;2022-08-01T10:33:31;6.97;;;1.65;;
62994;SDS011;49086;52.300;4.850;2022-08-01T10:36:11;8.27;;;1.80;;
62994;SDS011;49086;52.300;4.850;2022-08-01T10:39:21;8.02;;;1.83;;
62994;SDS011;49086;52.300;4.850;2022-08-01T10:41:47;3.95;;;1.55;;
62994;SDS011;49086;52.300;4.850;2022-08-01T10:44:14;7.15;;;1.75;;
62994;SDS011;49086;52.300;4.850;2022-08-01T10:46:42;8.18;;;1.92;;
62994;SDS011;49086;52.300;4.850;2022-08-01T10:49:24;5.80;;;1.42;;
62994;SDS011;49086;52.300;4.850;2022-08-01T10:51:53;5.53;;;1.20;;
62994;SDS011;49086;52.300;4.850;2022-08-01T10:54:20;7.60;;;1.73;;
62994;SDS011;49086;52.300;4.850;2022-08-01T10:56:51;3.40;;;1.30;;
62994;SDS011;49086;52.300;4.850;2022-08-01T10:59:27;6.18;;;1.60;;
62994;SDS011;49086;52.300;4.850;2022-08-01T11:01:59;6.72;;;1.52;;
62994;SDS011;49086;52.300;4.850;2022-08-01T11:04:46;4.85;;;1.40;;
62994;SDS011;49086;52.300;4.850;2022-08-01T11:10:24;3.28;;;1.33;;
62994;SDS011;49086;52.300;4.850;2022-08-01T11:13:03;5.78;;;1.30;;
62994;SDS011;49086;52.300;4.850;2022-08-01T11:15:34;5.88;;;1.48;;
62994;SDS011;49086;52.300;4.850;2022-08-01T11:18:00;3.88;;;1.80;;
62994;SDS011;49086;52.300;4.850;2022-08-01T11:20:39;5.75;;;1.50;;
62994;SDS011;49086;52.300;4.850;2022-08-01T11:23:22;8.77;;;1.80;;
62994;SDS011;49086;52.300;4.850;2022-08-01T11:28:19;6.13;;;1.60;;
62994;SDS011;49086;52.300;4.850;2022-08-01T11:36:27;7.47;;;1.90;;
62994;SDS011;49086;52.300;4.850;2022-08-01T11:39:15;9.52;;;2.08;;
62994;SDS011;49086;52.300;4.850;2022-08-01T11:41:41;7.85;;;2.30;;
62994;SDS011;49086;52.300;4.850;2022-08-01T11:44:20;10.15;;;2.05;;
62994;SDS011;49086;52.300;4.850;2022-08-01T11:49:57;8.15;;;2.00;;
62994;SDS011;49086;52.300;4.850;2022-08-01T11:52:29;3.63;;;1.15;;
62994;SDS011;49086;52.300;4.850;2022-08-01T11:55:05;6.07;;;1.60;;
62994;SDS011;49086;52.300;4.850;2022-08-01T11:57:38;4.10;;;1.40;;
62994;SDS011;49086;52.300;4.850;2022-08-01T12:00:15;4.60;;;1.30;;
62994;SDS011;49086;52.300;4.850;2022-08-01T12:02:46;5.50;;;1.63;;
62994;SDS011;49086;52.300;4.850;2022-08-01T12:05:12;6.30;;;1.40;;
62994;SDS011;49086;52.300;4.850;2022-08-01T12:07:57;7.68;;;1.80;;
62994;SDS011;49086;52.300;4.850;2022-08-01T12:10:24;6.32;;;1.38;;
62994;SDS011;49086;52.300;4.850;2022-08-01T12:12:55;7.85;;;2.10;;
62994;SDS011;49086;52.300;4.850;2022-08-01T12:15:30;7.90;;;1.30;;
62994;SDS011;49086;52.300;4.850;2022-08-01T12:17:59;8.45;;;1.60;;
62994;SDS011;49086;52.300;4.850;2022-08-01T12:20:30;5.00;;;1.92;;
62994;SDS011;49086;52.300;4.850;2022-08-01T12:23:00;5.57;;;1.48;;
62994;SDS011;49086;52.300;4.850;2022-08-01T12:25:29;5.82;;;1.50;;
62994;SDS011;49086;52.300;4.850;2022-08-01T12:27:59;12.05;;;1.65;;
62994;SDS011;49086;52.300;4.850;2022-08-01T12:30:29;6.72;;;1.70;;
62994;SDS011;49086;52.300;4.850;2022-08-01T12:33:03;6.90;;;1.67;;
62994;SDS011;49086;52.300;4.850;2022-08-01T12:35:37;7.28;;;1.65;;
62994;SDS011;49086;52.300;4.850;2022-08-01T12:38:17;5.45;;;1.60;;
62994;SDS011;49086;52.300;4.850;2022-08-01T12:40:48;11.65;;;2.85;;
62994;SDS011;49086;52.300;4.850;2022-08-01T12:43:16;5.13;;;1.60;;
62994;SDS011;49086;52.300;4.850;2022-08-01T12:45:51;7.47;;;1.63;;
62994;SDS011;49086;52.300;4.850;2022-08-01T12:48:19;4.53;;;1.50;;
62994;SDS011;49086;52.300;4.850;2022-08-01T12:50:48;5.47;;;1.75;;
62994;SDS011;49086;52.300;4.850;2022-08-01T12:53:17;5.00;;;1.40;;
62994;SDS011;49086;52.300;4.850;2022-08-01T12:55:48;8.52;;;1.63;;
62994;SDS011;49086;52.300;4.850;2022-08-01T12:58:20;5.72;;;1.60;;
62994;SDS011;49086;52.300;4.850;2022-08-01T13:00:48;7.95;;;1.52;;
62994;SDS011;49086;52.300;4.850;2022-08-01T13:03:28;5.18;;;1.60;;
62994;SDS011;49086;52.300;4.850;2022-08-01T13:05:57;6.72;;;1.55;;
62994;SDS011;49086;52.300;4.850;2022-08-01T13:11:01;5.30;;;1.30;;
62994;SDS011;49086;52.300;4.850;2022-08-01T13:13:45;5.05;;;1.50;;
62994;SDS011;49086;52.300;4.850;2022-08-01T13:16:22;5.28;;;1.38;;
62994;SDS011;49086;52.300;4.850;2022-08-01T13:18:50;5.78;;;1.60;;
62994;SDS011;49086;52.300;4.850;2022-08-01T13:21:19;6.80;;;2.55;;
62994;SDS011;49086;52.300;4.850;2022-08-01T13:32:18;7.43;;;1.38;;
62994;SDS011;49086;52.300;4.850;2022-08-01T13:34:44;3.83;;;1.23;;
62994;SDS011;49086;52.300;4.850;2022-08-01T13:37:10;4.95;;;1.40;;
62994;SDS011;49086;52.300;4.850;2022-08-01T13:39:43;4.43;;;1.20;;
62994;SDS011;49086;52.300;4.850;2022-08-01T13:42:10;3.33;;;1.25;;
62994;SDS011;49086;52.300;4.850;2022-08-01T13:44:36;4.55;;;1.48;;
62994;SDS011;49086;52.300;4.850;2022-08-01T13:47:06;4.32;;;1.50;;
62994;SDS011;49086;52.300;4.850;2022-08-01T13:49:34;4.13;;;1.25;;
62994;SDS011;49086;52.300;4.850;2022-08-01T13:52:02;3.15;;;1.08;;
62994;SDS011;49086;52.300;4.850;2022-08-01T13:54:32;2.95;;;1.20;;
62994;SDS011;49086;52.300;4.850;2022-08-01T13:56:58;4.85;;;1.25;;
62994;SDS011;49086;52.300;4.850;2022-08-01T13:59:25;2.15;;;0.90;;
62994;SDS011;49086;52.300;4.850;2022-08-01T14:01:56;4.20;;;1.17;;
62994;SDS011;49086;52.300;4.850;2022-08-01T14:04:25;3.25;;;1.30;;
62994;SDS011;49086;52.300;4.850;2022-08-01T14:06:55;3.88;;;1.10;;
62994;SDS011;49086;52.300;4.850;2022-08-01T14:09:24;5.88;;;1.40;;
62994;SDS011;49086;52.300;4.850;2022-08-01T14:11:51;5.63;;;1.38;;
62994;SDS011;49086;52.300;4.850;2022-08-01T14:14:19;7.05;;;1.67;;
62994;SDS011;49086;52.300;4.850;2022-08-01T14:16:50;6.10;;;1.52;;
62994;SDS011;49086;52.300;4.850;2022-08-01T14:19:19;4.57;;;1.60;;
62994;SDS011;49086;52.300;4.850;2022-08-01T14:21:52;5.47;;;1.50;;
62994;SDS011;49086;52.300;4.850;2022-08-01T14:24:19;4.93;;;1.42;;
62994;SDS011;49086;52.300;4.850;2022-08-01T14:26:45;7.53;;;1.50;;
62994;SDS011;49086;52.300;4.850;2022-08-01T14:29:11;5.68;;;1.50;;
62994;SDS011;49086;52.300;4.850;2022-08-01T14:31:37;3.10;;;1.30;;
62994;SDS011;49086;52.300;4.850;2022-08-01T14:34:07;5.78;;;1.60;;
62994;SDS011;49086;52.300;4.850;2022-08-01T14:36:38;5.95;;;1.50;;
62994;SDS011;49086;52.300;4.850;2022-08-01T14:39:05;5.70;;;1.42;;
62994;SDS011;49086;52.300;4.850;2022-08-01T14:41:38;5.25;;;1.58;;
62994;SDS011;49086;52.300;4.850;2022-08-01T14:44:08;7.18;;;1.80;;
62994;SDS011;49086;52.300;4.850;2022-08-01T14:46:35;4.80;;;1.30;;
62994;SDS011;49086;52.300;4.850;2022-08-01T14:49:03;6.63;;;1.60;;
62994;SDS011;49086;52.300;4.850;2022-08-01T14:51:30;6.03;;;1.50;;
62994;SDS011;49086;52.300;4.850;2022-08-01T14:53:58;4.28;;;1.50;;
62994;SDS011;49086;52.300;4.850;2022-08-01T14:56:24;4.85;;;1.20;;
62994;SDS011;49086;52.300;4.850;2022-08-01T14:58:52;3.17;;;1.20;;
62994;SDS011;49086;52.300;4.850;2022-08-01T15:01:20;4.13;;;1.13;;
62994;SDS011;49086;52.300;4.850;2022-08-01T15:03:46;5.88;;;1.42;;
62994;SDS011;49086;52.300;4.850;2022-08-01T15:06:13;5.30;;;1.67;;
62994;SDS011;49086;52.300;4.850;2022-08-01T15:08:39;3.88;;;1.30;;
62994;SDS011;49086;52.300;4.850;2022-08-01T15:11:05;5.90;;;1.40;;
62994;SDS011;49086;52.300;4.850;2022-08-01T15:13:33;6.22;;;1.45;;
62994;SDS011;49086;52.300;4.850;2022-08-01T15:16:01;5.25;;;1.10;;
62994;SDS011;49086;52.300;4.850;2022-08-01T15:18:27;6.22;;;1.60;;
62994;SDS011;49086;52.300;4.850;2022-08-01T15:21:07;6.43;;;1.20;;
62994;SDS011;49086;52.300;4.850;2022-08-01T15:23:32;6.25;;;1.30;;
62994;SDS011;49086;52.300;4.850;2022-08-01T15:26:03;6.55;;;1.80;;
62994;SDS011;49086;52.300;4.850;2022-08-01T15:28:29;9.15;;;1.35;;
62994;SDS011;49086;52.300;4.850;2022-08-01T15:31:01;5.55;;;1.30;;
62994;SDS011;49086;52.300;4.850;2022-08-01T15:33:27;6.72;;;1.52;;
62994;SDS011;49086;52.300;4.850;2022-08-01T15:35:55;5.63;;;1.58;;
62994;SDS011;49086;52.300;4.850;2022-08-01T15:38:31;6.65;;;1.38;;
62994;SDS011;49086;52.300;4.850;2022-08-01T15:40:57;4.15;;;1.30;;
62994;SDS011;49086;52.300;4.850;2022-08-01T15:43:22;6.47;;;1.20;;
62994;SDS011;49086;52.300;4.850;2022-08-01T15:45:49;6.30;;;1.33;;
62994;SDS011;49086;52.300;4.850;2022-08-01T15:48:16;3.60;;;1.27;;
62994;SDS011;49086;52.300;4.850;2022-08-01T15:50:42;4.22;;;1.30;;
62994;SDS011;49086;52.300;4.850;2022-08-01T15:53:07;6.10;;;1.40;;
62994;SDS011;49086;52.300;4.850;2022-08-01T15:55:37;5.45;;;1.33;;
62994;SDS011;49086;52.300;4.850;2022-08-01T15:58:07;7.35;;;1.35;;
62994;SDS011;49086;52.300;4.850;2022-08-01T16:00:34;4.60;;;1.73;;
62994;SDS011;49086;52.300;4.850;2022-08-01T16:03:00;7.82;;;1.42;;
62994;SDS011;49086;52.300;4.850;2022-08-01T16:05:26;4.38;;;1.30;;
62994;SDS011;49086;52.300;4.850;2022-08-01T16:07:53;7.43;;;1.42;;
62994;SDS011;49086;52.300;4.850;2022-08-01T16:10:23;3.40;;;1.10;;
62994;SDS011;49086;52.300;4.850;2022-08-01T16:12:50;4.10;;;1.30;;
62994;SDS011;49086;52.300;4.850;2022-08-01T16:15:16;6.03;;;1.40;;
62994;SDS011;49086;52.300;4.850;2022-08-01T16:17:42;5.53;;;1.50;;
62994;SDS011;49086;52.300;4.850;2022-08-01T16:20:19;4.68;;;1.13;;
62994;SDS011;49086;52.300;4.850;2022-08-01T16:22:47;6.72;;;1.60;;
62994;SDS011;49086;52.300;4.850;2022-08-01T16:25:26;3.45;;;1.15;;
62994;SDS011;49086;52.300;4.850;2022-08-01T16:27:53;5.85;;;1.52;;
62994;SDS011;49086;52.300;4.850;2022-08-01T16:30:47;4.85;;;1.15;;
62994;SDS011;49086;52.300;4.850;2022-08-01T16:33:24;5.82;;;1.45;;
62994;SDS011;49086;52.300;4.850;2022-08-01T16:35:50;4.97;;;1.83;;
62994;SDS011;49086;52.300;4.850;2022-08-01T16:38:18;5.53;;;1.45;;
62994;SDS011;49086;52.300;4.850;2022-08-01T16:40:49;5.30;;;1.45;;
62994;SDS011;49086;52.300;4.850;2022-08-01T16:43:19;3.33;;;1.10;;
62994;SDS011;49086;52.300;4.850;2022-08-01T16:45:45;5.20;;;1.48;;
62994;SDS011;49086;52.300;4.850;2022-08-01T16:48:14;6.38;;;1.33;;
62994;SDS011;49086;52.300;4.850;2022-08-01T16:50:44;5.00;;;1.42;;
62994;SDS011;49086;52.300;4.850;2022-08-01T16:53:18;3.63;;;1.20;;
62994;SDS011;49086;52.300;4.850;2022-08-01T16:55:48;5.57;;;1.30;;
62994;SDS011;49086;52.300;4.850;2022-08-01T16:58:14;4.65;;;1.17;;
62994;SDS011;49086;52.300;4.850;2022-08-01T17:00:44;4.95;;;1.30;;
62994;SDS011;49086;52.300;4.850;2022-08-01T17:03:11;5.95;;;1.50;;
62994;SDS011;49086;52.300;4.850;2022-08-01T17:05:52;2.35;;;1.00;;